Time;durP1;ratioP1;P1;durP2;ratioP2;P2;SDS_P1;SDS_P2;PMS_P1;PMS_P2;Temp;Humidity;BMP_temperature;BMP_pressure;BME280_temperature;BME280_humidity;BME280_pressure;Samples;Min_cycle;Max_cycle;Signal;HPM_P1;HPM_P2
2024/01/16 00:01:10;;;;;;;6.20;3.40;;;1.80;63.20;;;;;;4963861;28;20062;-61
2024/01/16 00:03:37;;;;;;;10.07;3.13;;;1.80;63.10;;;;;;4948237;28;20038;-63
2024/01/16 00:06:04;;;;;;;4.30;2.88;;;1.70;63.10;;;;;;4964614;28;20041;-61
2024/01/16 00:08:29;;;;;;;6.80;3.05;;;1.70;63.00;;;;;;4964384;28;20042;-62
2024/01/16 00:10:55;;;;;;;5.32;3.03;;;1.70;63.00;;;;;;4945696;28;20050;-62
2024/01/16 00:13:21;;;;;;;5.18;3.25;;;1.70;63.00;;;;;;4963790;28;20041;-61
2024/01/16 00:15:49;;;;;;;6.00;3.95;;;1.70;63.00;;;;;;4962831;28;20027;-63
2024/01/16 00:18:15;;;;;;;7.07;3.45;;;1.60;63.00;;;;;;4968093;28;20027;-61
2024/01/16 00:20:40;;;;;;;4.65;3.03;;;1.60;63.00;;;;;;4968662;28;20092;-62
2024/01/16 00:23:06;;;;;;;4.93;3.25;;;1.60;63.00;;;;;;4952363;28;20031;-62
2024/01/16 00:25:32;;;;;;;4.40;2.95;;;1.50;63.00;;;;;;4965487;28;20029;-61
2024/01/16 00:27:58;;;;;;;6.75;3.25;;;1.50;63.00;;;;;;4965660;28;20030;-61
2024/01/16 00:30:24;;;;;;;8.98;3.67;;;1.50;62.90;;;;;;4944646;28;20679;-63
2024/01/16 00:32:49;;;;;;;7.65;3.38;;;1.40;63.10;;;;;;4946484;28;20045;-62
2024/01/16 00:35:15;;;;;;;7.63;3.47;;;1.40;63.10;;;;;;4965684;28;20161;-62
2024/01/16 00:37:41;;;;;;;6.43;3.72;;;1.40;63.10;;;;;;4967316;28;20031;-63
2024/01/16 00:40:08;;;;;;;6.47;3.65;;;1.40;63.20;;;;;;4965779;28;20090;-62
2024/01/16 00:42:34;;;;;;;8.43;3.78;;;1.30;63.10;;;;;;4969133;28;20035;-62
2024/01/16 00:45:00;;;;;;;6.07;3.22;;;1.30;63.20;;;;;;4968507;28;20042;-62
2024/01/16 00:47:26;;;;;;;6.15;3.90;;;1.30;63.10;;;;;;4876992;28;20033;-62
2024/01/16 00:49:52;;;;;;;5.60;3.40;;;1.30;63.30;;;;;;4968203;28;20224;-62
2024/01/16 00:52:19;;;;;;;4.03;3.30;;;1.30;63.30;;;;;;4968915;28;20035;-63
2024/01/16 00:54:44;;;;;;;6.47;3.25;;;1.40;63.50;;;;;;4966605;28;20493;-62
2024/01/16 00:57:10;;;;;;;10.38;3.70;;;1.20;63.40;;;;;;4969330;28;20035;-61
2024/01/16 00:59:36;;;;;;;5.47;3.22;;;1.20;63.40;;;;;;4965022;28;20081;-60
2024/01/16 01:02:03;;;;;;;7.85;3.38;;;1.20;63.40;;;;;;4951857;28;20162;-62
2024/01/16 01:04:29;;;;;;;5.93;3.53;;;1.10;63.40;;;;;;4968427;28;20034;-61
2024/01/16 01:06:55;;;;;;;9.38;3.78;;;1.20;63.40;;;;;;4969561;28;20042;-62
2024/01/16 01:09:20;;;;;;;9.10;3.78;;;1.10;63.40;;;;;;4966668;28;20488;-61
2024/01/16 01:11:46;;;;;;;6.05;3.15;;;1.10;63.40;;;;;;4970681;28;20042;-61
2024/01/16 01:14:12;;;;;;;5.72;3.50;;;1.10;63.40;;;;;;4968265;28;20027;-61
2024/01/16 01:16:37;;;;;;;5.93;3.65;;;1.10;63.40;;;;;;4967007;28;20031;-63
2024/01/16 01:19:03;;;;;;;8.20;3.72;;;1.10;63.50;;;;;;4966600;28;20429;-61
2024/01/16 01:21:29;;;;;;;8.35;3.80;;;1.10;63.50;;;;;;4966644;28;20030;-61
2024/01/16 01:23:55;;;;;;;7.82;3.72;;;1.10;63.60;;;;;;4969311;28;20035;-61
2024/01/16 01:26:20;;;;;;;6.97;3.60;;;1.00;63.60;;;;;;4969070;28;20057;-61
2024/01/16 01:28:46;;;;;;;5.78;3.88;;;1.00;63.50;;;;;;4966333;28;20027;-61
2024/01/16 01:31:12;;;;;;;6.72;3.65;;;1.00;63.60;;;;;;4969109;28;20028;-61
2024/01/16 01:33:39;;;;;;;4.55;3.45;;;1.00;63.60;;;;;;4966163;28;20049;-62
2024/01/16 01:36:05;;;;;;;6.40;3.28;;;1.00;63.40;;;;;;4972859;28;20677;-62
2024/01/16 01:38:30;;;;;;;4.75;3.30;;;1.00;63.40;;;;;;4967740;28;20038;-62
2024/01/16 01:40:56;;;;;;;6.57;3.35;;;1.00;63.30;;;;;;4972284;28;20121;-62
2024/01/16 01:43:24;;;;;;;7.80;3.28;;;0.90;63.30;;;;;;4966997;28;20034;-62
2024/01/16 01:46:13;;;;;;;8.55;3.63;;;1.00;63.40;;;;;;4890253;28;20035;-60
2024/01/16 01:48:41;;;;;;;10.45;3.40;;;0.80;63.20;;;;;;4966761;28;20031;-62
2024/01/16 01:51:20;;;;;;;6.35;3.47;;;0.80;63.30;;;;;;4948072;28;20038;-62
2024/01/16 01:53:49;;;;;;;8.48;3.50;;;0.70;63.40;;;;;;4968392;28;20034;-62
2024/01/16 01:56:17;;;;;;;7.05;3.60;;;0.70;63.50;;;;;;4966623;28;20110;-61
2024/01/16 01:58:45;;;;;;;9.13;3.40;;;0.80;63.80;;;;;;4965416;28;20022;-62
2024/01/16 02:01:13;;;;;;;8.50;3.40;;;0.70;63.80;;;;;;4970226;28;20686;-63
2024/01/16 02:03:43;;;;;;;6.38;3.28;;;0.70;63.70;;;;;;4965998;28;20059;-62
2024/01/16 02:06:10;;;;;;;7.35;3.40;;;0.70;63.70;;;;;;4966674;28;20055;-61
2024/01/16 02:08:35;;;;;;;9.45;4.00;;;0.80;63.80;;;;;;4969033;28;20506;-62
2024/01/16 02:11:01;;;;;;;7.95;3.72;;;0.60;63.90;;;;;;4965079;28;20066;-61
2024/01/16 02:13:28;;;;;;;4.70;3.30;;;0.60;64.00;;;;;;4963180;28;20426;-61
2024/01/16 02:15:53;;;;;;;6.20;3.20;;;0.60;64.00;;;;;;4967065;28;20085;-62
2024/01/16 02:18:19;;;;;;;9.80;3.20;;;0.60;64.00;;;;;;4969058;28;20026;-62
2024/01/16 02:20:47;;;;;;;8.05;3.30;;;0.60;64.00;;;;;;4966503;28;20038;-62
2024/01/16 02:23:15;;;;;;;6.47;3.50;;;0.60;64.10;;;;;;4966832;28;20153;-61
2024/01/16 02:25:42;;;;;;;8.00;3.90;;;0.50;64.00;;;;;;4963225;28;20066;-62
2024/01/16 02:28:07;;;;;;;5.60;3.33;;;0.60;64.10;;;;;;4972123;28;20027;-63
2024/01/16 02:30:33;;;;;;;8.07;3.85;;;0.60;64.20;;;;;;4933411;28;20533;-62
2024/01/16 02:32:59;;;;;;;5.88;3.67;;;0.50;64.10;;;;;;4964644;28;20042;-63
2024/01/16 02:35:25;;;;;;;6.18;3.30;;;0.60;64.30;;;;;;4968806;28;20481;-62
2024/01/16 02:37:51;;;;;;;6.47;3.60;;;0.70;64.40;;;;;;4965695;28;20023;-62
2024/01/16 02:40:16;;;;;;;5.95;3.55;;;0.60;64.40;;;;;;4971512;28;20034;-61
2024/01/16 02:42:42;;;;;;;5.85;3.25;;;0.60;64.30;;;;;;4968976;28;20030;-62
2024/01/16 02:45:17;;;;;;;4.65;3.17;;;0.50;64.10;;;;;;4940002;28;20039;-61
2024/01/16 02:47:42;;;;;;;6.93;3.13;;;0.60;64.20;;;;;;4967813;28;20022;-62
2024/01/16 02:50:09;;;;;;;12.90;4.70;;;0.50;64.10;;;;;;4965445;28;20033;-61
2024/01/16 02:52:36;;;;;;;5.22;3.40;;;0.60;64.20;;;;;;4965322;28;20029;-61
2024/01/16 02:55:02;;;;;;;7.15;3.58;;;0.50;64.20;;;;;;4967247;28;20380;-62
2024/01/16 02:57:28;;;;;;;8.65;3.60;;;0.60;64.20;;;;;;4968709;28;20042;-62
2024/01/16 02:59:54;;;;;;;9.93;3.90;;;0.60;64.20;;;;;;4965582;28;20039;-63
2024/01/16 03:02:19;;;;;;;4.32;3.05;;;0.60;64.30;;;;;;4962394;28;20042;-61
2024/01/16 03:04:45;;;;;;;8.30;3.72;;;0.60;64.40;;;;;;4963956;28;20027;-62
2024/01/16 03:07:11;;;;;;;6.78;3.28;;;0.60;64.40;;;;;;4965965;28;20477;-62
2024/01/16 03:09:37;;;;;;;5.90;3.53;;;0.60;64.30;;;;;;4973657;28;20125;-62
2024/01/16 03:12:02;;;;;;;6.53;3.47;;;0.80;64.40;;;;;;4969065;28;20042;-61
2024/01/16 03:14:33;;;;;;;4.80;3.42;;;0.70;64.20;;;;;;4966696;28;20056;-62
2024/01/16 03:17:02;;;;;;;4.93;3.35;;;0.60;64.20;;;;;;4965497;28;20069;-61
2024/01/16 03:19:28;;;;;;;6.03;3.45;;;0.70;64.20;;;;;;4970402;28;20049;-63
2024/01/16 03:21:54;;;;;;;6.20;3.60;;;0.70;64.10;;;;;;4964364;28;20039;-61
2024/01/16 03:24:20;;;;;;;6.85;3.15;;;0.60;64.00;;;;;;4962153;28;20062;-62
2024/01/16 03:26:45;;;;;;;5.55;3.17;;;0.70;64.10;;;;;;4968863;28;20109;-63
2024/01/16 03:29:11;;;;;;;8.43;3.75;;;0.60;64.10;;;;;;4965386;28;20031;-61
2024/01/16 03:31:37;;;;;;;6.25;3.38;;;0.70;64.10;;;;;;4946106;28;20141;-61
2024/01/16 03:34:03;;;;;;;7.90;3.63;;;0.60;64.80;;;;;;4968910;28;20113;-61
2024/01/16 03:36:28;;;;;;;5.78;3.00;;;0.70;64.30;;;;;;4967407;28;20046;-61
2024/01/16 03:38:54;;;;;;;9.48;3.83;;;0.70;64.30;;;;;;4967342;28;20027;-62
2024/01/16 03:41:20;;;;;;;6.03;3.35;;;0.80;64.30;;;;;;4965446;28;20111;-61
2024/01/16 03:43:45;;;;;;;5.80;2.95;;;0.60;64.20;;;;;;4965451;28;20035;-61
2024/01/16 03:46:12;;;;;;;7.80;3.17;;;1.00;64.30;;;;;;4931651;28;20793;-62
2024/01/16 03:48:39;;;;;;;6.90;3.70;;;0.60;64.60;;;;;;4966878;28;20030;-61
2024/01/16 03:51:06;;;;;;;5.78;3.05;;;0.60;64.00;;;;;;4962791;28;20035;-63
2024/01/16 03:53:32;;;;;;;6.70;3.83;;;0.90;64.20;;;;;;4965364;28;20418;-61
2024/01/16 03:55:58;;;;;;;9.57;3.53;;;0.80;64.20;;;;;;4967654;28;20086;-63
2024/01/16 03:58:24;;;;;;;7.07;3.70;;;0.60;64.00;;;;;;4962707;28;20497;-62
2024/01/16 04:00:50;;;;;;;7.07;3.45;;;0.80;64.20;;;;;;4961923;28;20429;-61
2024/01/16 04:03:17;;;;;;;8.23;3.42;;;0.60;64.00;;;;;;4961716;28;20035;-62
2024/01/16 04:05:42;;;;;;;6.13;3.50;;;0.60;64.10;;;;;;4964851;28;20026;-62
2024/01/16 04:08:08;;;;;;;10.00;4.35;;;0.50;64.10;;;;;;4964005;28;20034;-63
2024/01/16 04:10:34;;;;;;;8.02;3.40;;;0.50;64.10;;;;;;4966133;28;20042;-61
2024/01/16 04:13:03;;;;;;;6.43;3.45;;;0.50;64.00;;;;;;4964265;28;20038;-61
2024/01/16 04:15:28;;;;;;;8.43;3.10;;;0.50;63.90;;;;;;4963675;28;20102;-62
2024/01/16 04:17:54;;;;;;;6.22;3.70;;;0.60;64.00;;;;;;4971990;28;20042;-61
2024/01/16 04:20:21;;;;;;;6.60;3.22;;;0.40;63.90;;;;;;4967035;28;20445;-62
2024/01/16 04:22:46;;;;;;;4.95;3.55;;;0.40;64.00;;;;;;4967547;28;20340;-62
2024/01/16 04:25:12;;;;;;;7.20;3.95;;;0.30;64.00;;;;;;4950939;28;20031;-62
2024/01/16 04:27:38;;;;;;;6.63;4.07;;;0.30;64.10;;;;;;4967373;28;20061;-62
2024/01/16 04:30:04;;;;;;;10.32;4.47;;;0.40;64.20;;;;;;4964885;28;20453;-62
2024/01/16 04:32:30;;;;;;;6.78;3.42;;;0.20;64.10;;;;;;4962964;28;20544;-61
2024/01/16 04:34:56;;;;;;;6.88;3.13;;;0.40;64.30;;;;;;4968266;28;20026;-61
2024/01/16 04:37:22;;;;;;;6.63;3.45;;;0.20;64.20;;;;;;4946880;28;20275;-61
2024/01/16 04:39:48;;;;;;;9.10;3.30;;;0.30;64.30;;;;;;4970905;28;20101;-62
2024/01/16 04:42:13;;;;;;;4.70;3.22;;;0.10;64.10;;;;;;4972053;28;20034;-62
2024/01/16 04:44:39;;;;;;;7.75;3.17;;;0.10;64.10;;;;;;4946422;28;20094;-63
2024/01/16 04:47:05;;;;;;;9.60;4.10;;;0.00;64.10;;;;;;4969096;28;20468;-61
2024/01/16 04:49:31;;;;;;;5.30;3.13;;;0.00;64.20;;;;;;4969753;28;20512;-61
2024/01/16 04:51:56;;;;;;;6.88;3.63;;;0.10;64.30;;;;;;4966281;28;20041;-62
2024/01/16 04:54:22;;;;;;;5.03;3.08;;;-0.10;64.30;;;;;;4966056;28;20026;-61
2024/01/16 04:56:48;;;;;;;8.13;3.20;;;-0.10;64.40;;;;;;4966546;28;20374;-62
2024/01/16 04:59:13;;;;;;;5.50;3.20;;;0.10;64.70;;;;;;4965833;28;20364;-62
2024/01/16 05:01:39;;;;;;;7.18;3.30;;;0.00;64.70;;;;;;4949881;28;20038;-61
2024/01/16 05:04:05;;;;;;;9.93;5.80;;;-0.10;64.60;;;;;;4962654;28;20069;-60
2024/01/16 05:06:30;;;;;;;10.82;5.45;;;-0.20;64.50;;;;;;4944074;28;20478;-63
2024/01/16 05:08:56;;;;;;;10.05;4.63;;;-0.10;64.40;;;;;;4965617;28;20035;-62
2024/01/16 05:11:22;;;;;;;13.88;4.43;;;-0.30;64.20;;;;;;4964901;28;20126;-62
2024/01/16 05:13:49;;;;;;;7.55;4.60;;;-0.30;64.20;;;;;;4969538;28;20035;-62
2024/01/16 05:16:15;;;;;;;9.30;4.10;;;-0.40;64.80;;;;;;4966894;28;20549;-62
2024/01/16 05:18:44;;;;;;;10.63;4.85;;;-0.40;64.30;;;;;;4966356;28;20026;-62
2024/01/16 05:21:09;;;;;;;6.93;3.92;;;-0.50;64.20;;;;;;4967604;28;20029;-61
2024/01/16 05:23:35;;;;;;;11.32;4.38;;;-0.50;64.30;;;;;;4965259;28;20031;-61
2024/01/16 05:26:01;;;;;;;11.93;4.65;;;-0.60;64.30;;;;;;4967518;28;20034;-60
2024/01/16 05:28:26;;;;;;;10.27;4.28;;;-0.60;64.40;;;;;;4964425;28;20110;-63
2024/01/16 05:30:52;;;;;;;10.70;4.47;;;-0.50;64.50;;;;;;4963603;28;20035;-61
2024/01/16 05:33:17;;;;;;;9.00;4.22;;;-0.70;64.50;;;;;;4966342;28;20447;-63
2024/01/16 05:35:43;;;;;;;9.20;4.57;;;-0.80;64.50;;;;;;4964979;28;20500;-61
2024/01/16 05:38:09;;;;;;;7.70;3.58;;;-0.60;64.80;;;;;;4964660;28;20035;-62
2024/01/16 05:40:34;;;;;;;9.40;4.55;;;-0.80;64.70;;;;;;4965403;28;20023;-61
2024/01/16 05:43:01;;;;;;;8.93;4.30;;;-0.90;64.90;;;;;;4971129;28;20038;-61
2024/01/16 05:45:27;;;;;;;7.05;3.70;;;-0.90;64.90;;;;;;4906385;28;20105;-62
2024/01/16 05:47:53;;;;;;;9.27;4.00;;;-0.90;64.90;;;;;;4964829;28;20169;-61
2024/01/16 05:50:19;;;;;;;6.22;3.78;;;-1.00;64.90;;;;;;4964857;28;20035;-62
2024/01/16 05:52:44;;;;;;;7.05;3.63;;;-1.00;64.90;;;;;;4950834;28;20039;-62
2024/01/16 05:55:10;;;;;;;6.50;3.55;;;-1.00;64.90;;;;;;4965762;28;20035;-62
2024/01/16 05:57:37;;;;;;;9.27;4.07;;;-0.80;65.00;;;;;;4964374;28;20482;-62
2024/01/16 06:00:05;;;;;;;7.60;3.75;;;-1.00;64.80;;;;;;4965743;28;20482;-62
2024/01/16 06:02:30;;;;;;;7.18;3.72;;;-1.10;64.80;;;;;;4970614;28;20046;-62
2024/01/16 06:04:56;;;;;;;6.05;3.35;;;-0.90;64.80;;;;;;4969226;28;20046;-62
2024/01/16 06:07:22;;;;;;;10.80;3.78;;;-1.10;64.70;;;;;;4947982;28;20030;-62
2024/01/16 06:09:47;;;;;;;8.23;4.13;;;-1.10;64.70;;;;;;4965888;28;20115;-62
2024/01/16 06:12:13;;;;;;;8.82;3.85;;;-1.10;64.70;;;;;;4963370;28;20042;-62
2024/01/16 06:14:39;;;;;;;7.32;3.70;;;-1.00;64.80;;;;;;4968065;28;20389;-62
2024/01/16 06:17:06;;;;;;;9.57;4.50;;;-0.90;64.80;;;;;;4964002;28;20043;-61
2024/01/16 06:19:32;;;;;;;10.05;4.68;;;-1.30;64.60;;;;;;4968889;28;20022;-62
2024/01/16 06:21:59;;;;;;;18.20;6.25;;;-1.30;64.60;;;;;;4965323;28;20553;-62
2024/01/16 06:24:25;;;;;;;20.27;6.65;;;-1.30;64.70;;;;;;4965554;28;20042;-61
2024/01/16 06:26:50;;;;;;;12.55;6.13;;;-1.40;64.70;;;;;;4967659;28;20023;-62
2024/01/16 06:29:16;;;;;;;13.43;5.40;;;-1.40;64.80;;;;;;4963668;28;21356;-63
2024/01/16 06:31:42;;;;;;;18.13;5.78;;;-1.40;64.90;;;;;;4968051;28;20121;-62
2024/01/16 06:34:08;;;;;;;9.85;4.55;;;-1.40;64.90;;;;;;4965367;28;20066;-63
2024/01/16 06:36:34;;;;;;;10.82;4.95;;;-1.40;64.90;;;;;;4962299;28;20023;-62
2024/01/16 06:38:59;;;;;;;8.23;3.60;;;-1.50;64.90;;;;;;4966157;28;20072;-62
2024/01/16 06:41:25;;;;;;;6.75;4.25;;;-1.50;65.00;;;;;;4960925;28;20081;-61
2024/01/16 06:43:51;;;;;;;8.13;4.03;;;-1.50;65.00;;;;;;4965489;28;20039;-61
2024/01/16 06:46:17;;;;;;;11.07;3.72;;;-1.50;65.10;;;;;;4933244;28;20026;-60
2024/01/16 06:48:43;;;;;;;6.30;3.30;;;-1.50;65.20;;;;;;4967340;28;20117;-61
2024/01/16 06:51:10;;;;;;;6.18;3.88;;;-1.50;65.10;;;;;;4963442;28;20580;-62
2024/01/16 06:53:36;;;;;;;6.85;3.78;;;-1.50;65.10;;;;;;4963275;28;20023;-62
2024/01/16 06:56:03;;;;;;;7.60;3.80;;;-1.50;65.10;;;;;;4964579;28;20048;-63
2024/01/16 06:58:28;;;;;;;5.57;3.75;;;-1.50;65.10;;;;;;4962866;28;20063;-62
2024/01/16 07:00:55;;;;;;;7.53;3.80;;;-1.50;65.10;;;;;;4962907;28;20151;-62
2024/01/16 07:03:20;;;;;;;9.73;4.22;;;-1.50;65.20;;;;;;4966774;28;20117;-61
2024/01/16 07:05:46;;;;;;;10.10;5.18;;;-1.50;65.20;;;;;;4964992;28;20037;-62
2024/01/16 07:08:12;;;;;;;7.30;4.05;;;-1.50;65.20;;;;;;4965525;28;20524;-63
2024/01/16 07:10:37;;;;;;;9.73;4.22;;;-1.50;65.20;;;;;;4962371;28;20078;-61
2024/01/16 07:13:03;;;;;;;11.23;5.45;;;-1.40;65.30;;;;;;4963173;28;20043;-61
2024/01/16 07:15:29;;;;;;;10.60;5.15;;;-1.40;65.30;;;;;;4963451;28;20073;-62
2024/01/16 07:17:54;;;;;;;11.48;5.65;;;-1.40;65.30;;;;;;4965366;28;20042;-61
2024/01/16 07:20:20;;;;;;;8.55;5.28;;;-1.40;65.30;;;;;;4964277;28;20037;-62
2024/01/16 07:22:46;;;;;;;12.07;5.97;;;-1.40;65.30;;;;;;4964758;28;20037;-63
2024/01/16 07:25:12;;;;;;;16.65;6.10;;;-1.40;65.30;;;;;;4961849;28;20035;-63
2024/01/16 07:27:37;;;;;;;10.90;4.68;;;-1.40;65.30;;;;;;4963480;28;20041;-63
2024/01/16 07:30:06;;;;;;;9.90;4.65;;;-1.30;65.30;;;;;;4964124;28;20042;-62
2024/01/16 07:32:33;;;;;;;8.45;4.72;;;-1.40;65.10;;;;;;4962814;28;20061;-63
2024/01/16 07:34:59;;;;;;;9.93;5.05;;;-1.30;65.20;;;;;;4963619;28;20109;-63
2024/01/16 07:37:25;;;;;;;13.70;5.50;;;-1.30;65.20;;;;;;4965034;28;20027;-62
2024/01/16 07:39:51;;;;;;;12.30;5.25;;;-1.30;65.20;;;;;;4963721;28;20578;-62
2024/01/16 07:42:16;;;;;;;8.80;4.63;;;-1.30;65.30;;;;;;4964597;28;20447;-65
2024/01/16 07:44:44;;;;;;;9.73;4.68;;;-1.30;65.30;;;;;;4964863;28;20033;-65
2024/01/16 07:47:09;;;;;;;9.13;4.45;;;-1.20;65.30;;;;;;4913977;28;20441;-64
2024/01/16 07:49:35;;;;;;;10.65;4.82;;;-1.20;65.20;;;;;;4967309;28;20042;-64
2024/01/16 07:52:00;;;;;;;7.60;4.88;;;-1.20;65.20;;;;;;4966133;28;20080;-62
2024/01/16 07:54:26;;;;;;;8.95;4.65;;;-1.10;65.30;;;;;;4964368;28;20037;-63
2024/01/16 07:56:52;;;;;;;11.98;5.47;;;-1.10;65.40;;;;;;4956233;28;20022;-65
2024/01/16 07:59:18;;;;;;;10.43;5.70;;;-1.00;65.30;;;;;;4946300;28;20111;-63
2024/01/16 08:01:43;;;;;;;8.82;5.47;;;-1.00;65.30;;;;;;4963887;28;20106;-63
2024/01/16 08:04:09;;;;;;;13.00;5.43;;;-0.80;65.40;;;;;;4970753;28;20154;-62
2024/01/16 08:06:35;;;;;;;17.58;5.28;;;-0.80;65.40;;;;;;4962056;28;20509;-63
2024/01/16 08:09:01;;;;;;;11.38;5.40;;;-0.80;65.40;;;;;;4966607;28;20042;-63
2024/01/16 08:11:26;;;;;;;24.27;5.53;;;-0.70;65.30;;;;;;4966756;28;20027;-63
2024/01/16 08:13:52;;;;;;;10.35;5.10;;;-0.60;65.30;;;;;;4964665;28;20453;-63
2024/01/16 08:16:18;;;;;;;9.10;5.13;;;-0.60;65.10;;;;;;4968299;28;20379;-63
2024/01/16 08:18:43;;;;;;;12.85;5.80;;;-0.30;65.20;;;;;;4966468;28;20366;-63
2024/01/16 08:21:09;;;;;;;11.05;4.78;;;-0.50;64.80;;;;;;4964046;28;20482;-63
2024/01/16 08:23:35;;;;;;;8.40;4.70;;;-0.40;64.70;;;;;;4966082;28;20039;-62
2024/01/16 08:26:00;;;;;;;8.75;4.22;;;-0.30;64.60;;;;;;4961522;28;20085;-63
2024/01/16 08:28:27;;;;;;;8.35;4.20;;;-0.30;64.60;;;;;;4970521;28;20054;-64
2024/01/16 08:30:53;;;;;;;8.80;4.32;;;-0.20;64.50;;;;;;4946122;28;20490;-64
2024/01/16 08:33:19;;;;;;;7.25;4.15;;;-0.20;64.40;;;;;;4945442;28;20070;-64
2024/01/16 08:35:45;;;;;;;11.20;4.35;;;-0.10;64.40;;;;;;4944910;28;20414;-63
2024/01/16 08:38:11;;;;;;;13.68;4.55;;;0.00;64.30;;;;;;4965339;28;20019;-63
2024/01/16 08:40:36;;;;;;;11.40;4.93;;;0.20;64.50;;;;;;4964291;28;20134;-63
2024/01/16 08:43:03;;;;;;;10.63;4.72;;;0.40;64.50;;;;;;4965083;28;20114;-63
2024/01/16 08:45:29;;;;;;;10.43;4.80;;;0.20;64.40;;;;;;4894028;28;20439;-62
2024/01/16 08:47:55;;;;;;;11.27;4.57;;;0.20;64.30;;;;;;4963930;28;20085;-62
2024/01/16 08:50:20;;;;;;;9.98;4.68;;;0.50;64.50;;;;;;4964587;28;20046;-62
2024/01/16 08:52:46;;;;;;;10.55;6.07;;;0.50;64.40;;;;;;4962974;28;20030;-62
2024/01/16 08:55:12;;;;;;;9.98;5.47;;;0.60;64.20;;;;;;4968017;28;20087;-61
2024/01/16 08:57:38;;;;;;;10.27;5.63;;;0.70;64.10;;;;;;4967398;28;20143;-62
2024/01/16 09:00:05;;;;;;;10.75;6.03;;;0.80;63.90;;;;;;4967055;28;20042;-63
2024/01/16 09:02:31;;;;;;;13.10;6.50;;;0.90;63.60;;;;;;4952478;28;20042;-63
2024/01/16 09:04:59;;;;;;;12.75;5.80;;;1.00;63.40;;;;;;4968726;28;20116;-63
2024/01/16 09:07:26;;;;;;;9.50;5.22;;;1.30;63.20;;;;;;4967060;28;20038;-63
2024/01/16 09:09:52;;;;;;;9.80;4.97;;;1.20;63.00;;;;;;4967971;28;20063;-63
2024/01/16 09:12:18;;;;;;;12.65;5.53;;;1.30;63.00;;;;;;4968973;28;20043;-63
2024/01/16 09:14:43;;;;;;;11.80;6.00;;;1.40;62.80;;;;;;4970537;28;20050;-62
2024/01/16 09:17:09;;;;;;;14.48;5.47;;;1.40;63.40;;;;;;4952190;28;20446;-62
2024/01/16 09:19:36;;;;;;;10.95;5.30;;;1.50;62.60;;;;;;4969931;28;20026;-63
2024/01/16 09:22:03;;;;;;;9.02;4.90;;;1.60;62.60;;;;;;4964930;28;20501;-62
2024/01/16 09:24:28;;;;;;;9.25;4.32;;;1.70;62.50;;;;;;4966809;28;20085;-62
2024/01/16 09:26:54;;;;;;;9.20;4.90;;;2.10;62.50;;;;;;4972034;28;20027;-61
2024/01/16 09:29:21;;;;;;;9.82;4.50;;;1.90;62.20;;;;;;4934110;28;20402;-62
2024/01/16 09:31:47;;;;;;;10.07;4.47;;;1.90;62.10;;;;;;4969736;28;20039;-63
2024/01/16 09:34:13;;;;;;;8.52;4.63;;;1.90;61.90;;;;;;4969043;28;20034;-63
2024/01/16 09:36:39;;;;;;;10.07;4.55;;;2.00;61.80;;;;;;4968224;28;20121;-63
2024/01/16 09:39:08;;;;;;;6.55;3.50;;;2.00;61.60;;;;;;4971481;28;20065;-62
2024/01/16 09:41:34;;;;;;;7.50;3.90;;;2.10;61.60;;;;;;4968895;28;20066;-63
2024/01/16 09:44:00;;;;;;;13.60;4.82;;;2.20;61.40;;;;;;4973899;28;20038;-63
2024/01/16 09:46:26;;;;;;;8.73;4.90;;;2.20;61.20;;;;;;4928071;28;20497;-63
2024/01/16 09:48:56;;;;;;;8.93;4.82;;;2.30;61.00;;;;;;4971746;28;20082;-63
2024/01/16 09:51:22;;;;;;;9.32;4.35;;;2.30;60.80;;;;;;4968105;28;20478;-63
2024/01/16 09:53:48;;;;;;;8.05;3.95;;;2.40;60.90;;;;;;4967372;28;20026;-62
2024/01/16 09:56:20;;;;;;;15.10;6.68;;;2.40;60.80;;;;;;4965760;28;20520;-62
2024/01/16 09:58:49;;;;;;;21.67;8.93;;;2.40;61.30;;;;;;4969169;28;20578;-63
2024/01/16 10:01:16;;;;;;;13.93;7.20;;;2.70;60.70;;;;;;4949593;28;20027;-63
2024/01/16 10:03:45;;;;;;;15.27;7.10;;;2.60;60.60;;;;;;4967368;28;20117;-63
2024/01/16 10:06:11;;;;;;;9.73;5.03;;;2.60;60.50;;;;;;4964248;28;20062;-63
2024/01/16 10:08:38;;;;;;;9.57;4.90;;;3.00;60.80;;;;;;4966860;28;20069;-63
2024/01/16 10:11:04;;;;;;;11.15;5.00;;;3.00;60.60;;;;;;4966432;28;20077;-63
2024/01/16 10:13:33;;;;;;;8.48;4.22;;;3.10;60.60;;;;;;4965015;28;20034;-62
2024/01/16 10:15:59;;;;;;;271.75;90.28;;;2.90;60.30;;;;;;4966943;28;20074;-63
2024/01/16 10:18:31;;;;;;;532.17;198.90;;;3.20;60.50;;;;;;4966389;28;20581;-63
2024/01/16 10:20:57;;;;;;;526.03;208.52;;;3.10;60.10;;;;;;4970368;28;20027;-62
2024/01/16 10:23:32;;;;;;;212.93;93.45;;;3.20;60.20;;;;;;4950743;28;20071;-62
2024/01/16 10:26:11;;;;;;;86.15;39.75;;;3.30;59.70;;;;;;4967041;28;20027;-62
2024/01/16 10:28:41;;;;;;;54.55;29.33;;;3.40;59.50;;;;;;4965465;28;20031;-62
2024/01/16 10:31:12;;;;;;;32.65;16.88;;;3.50;59.70;;;;;;4969543;28;20062;-64
2024/01/16 10:33:41;;;;;;;25.27;13.45;;;3.70;59.70;;;;;;4963808;28;20564;-62
2024/01/16 10:36:10;;;;;;;20.92;9.15;;;3.60;59.70;;;;;;4966591;28;20055;-64
2024/01/16 10:38:38;;;;;;;12.35;6.88;;;3.70;59.60;;;;;;4969206;28;20029;-62
2024/01/16 10:41:17;;;;;;;9.35;5.35;;;3.70;59.70;;;;;;4968748;28;20031;-63
2024/01/16 10:43:44;;;;;;;10.68;5.65;;;3.80;59.30;;;;;;4967501;28;20034;-64
2024/01/16 10:46:16;;;;;;;9.52;6.07;;;3.90;59.80;;;;;;4912241;28;20058;-63
2024/01/16 10:49:03;;;;;;;10.93;6.07;;;4.00;59.40;;;;;;4951815;28;20041;-63
2024/01/16 10:51:30;;;;;;;21.38;12.43;;;4.10;59.60;;;;;;4966284;28;20045;-64
2024/01/16 10:54:05;;;;;;;64.40;25.00;;;4.30;59.60;;;;;;4969075;28;20035;-63
2024/01/16 10:56:32;;;;;;;27.25;13.18;;;4.40;59.10;;;;;;4966434;28;20579;-64
2024/01/16 10:59:18;;;;;;;16.42;9.02;;;4.50;59.30;;;;;;4965926;28;20030;-65
2024/01/16 11:01:58;;;;;;;18.45;7.53;;;4.60;58.90;;;;;;4965349;28;20030;-64
2024/01/16 11:04:24;;;;;;;13.93;5.75;;;4.70;58.90;;;;;;4964174;28;20062;-63
2024/01/16 11:06:52;;;;;;;12.15;5.70;;;4.80;58.90;;;;;;4963257;28;20130;-63
2024/01/16 11:09:18;;;;;;;13.88;5.90;;;4.80;58.50;;;;;;4972842;28;20081;-63
2024/01/16 11:11:46;;;;;;;12.75;5.38;;;4.90;58.40;;;;;;4964742;28;20066;-63
2024/01/16 11:14:16;;;;;;;9.30;5.20;;;5.00;58.20;;;;;;4962847;28;20688;-62
2024/01/16 11:16:43;;;;;;;12.35;5.88;;;5.00;58.00;;;;;;4964788;28;20046;-63
2024/01/16 11:19:11;;;;;;;17.65;5.78;;;5.00;58.10;;;;;;4971535;28;20066;-63
2024/01/16 11:21:39;;;;;;;10.70;5.68;;;5.00;58.10;;;;;;4966453;28;20027;-63
2024/01/16 11:24:05;;;;;;;11.30;5.25;;;5.10;58.10;;;;;;4971031;28;20049;-62
2024/01/16 11:26:36;;;;;;;9.63;5.72;;;5.20;58.20;;;;;;4968307;28;20031;-62
2024/01/16 11:29:26;;;;;;;11.70;6.47;;;5.20;58.00;;;;;;4963709;28;20117;-65
2024/01/16 11:31:52;;;;;;;13.73;5.65;;;5.30;57.30;;;;;;4965150;28;20030;-63
2024/01/16 11:34:40;;;;;;;10.50;6.22;;;5.40;58.10;;;;;;4966743;28;20034;-63
2024/01/16 11:37:07;;;;;;;9.90;6.22;;;5.40;57.20;;;;;;4969948;28;20031;-64
2024/01/16 11:39:33;;;;;;;12.50;5.65;;;5.50;57.90;;;;;;4968836;28;20482;-63
2024/01/16 11:42:02;;;;;;;17.52;8.00;;;5.60;57.90;;;;;;4967554;28;20089;-64
2024/01/16 11:44:50;;;;;;;18.90;8.77;;;5.70;57.70;;;;;;4964950;28;20035;-63
2024/01/16 11:47:20;;;;;;;16.83;10.38;;;5.80;56.90;;;;;;4967022;28;20026;-63
2024/01/16 11:49:51;;;;;;;14.35;7.13;;;5.90;57.50;;;;;;4967064;28;20053;-63
2024/01/16 11:52:43;;;;;;;12.35;5.63;;;6.10;57.30;;;;;;4964839;28;20026;-63
2024/01/16 11:55:28;;;;;;;12.05;6.05;;;6.30;56.40;;;;;;4972303;28;20109;-64
2024/01/16 11:58:06;;;;;;;8.48;4.40;;;6.50;56.40;;;;;;4948547;28;20030;-64
2024/01/16 12:00:36;;;;;;;10.07;4.25;;;6.70;56.60;;;;;;4966009;28;20142;-63
2024/01/16 12:03:04;;;;;;;8.60;3.72;;;6.90;57.30;;;;;;4965460;28;20035;-63
2024/01/16 12:05:29;;;;;;;24.83;15.18;;;7.20;57.00;;;;;;4965045;28;20286;-63
2024/01/16 12:07:55;;;;;;;17.40;10.50;;;7.40;56.70;;;;;;4964545;28;20065;-63
2024/01/16 12:10:23;;;;;;;10.23;7.07;;;7.70;56.50;;;;;;4963710;28;20050;-63
2024/01/16 12:12:51;;;;;;;31.00;15.57;;;7.90;55.80;;;;;;4963329;28;20039;-64
2024/01/16 12:15:19;;;;;;;18.23;8.43;;;8.10;55.20;;;;;;4966064;28;20070;-63
2024/01/16 12:18:01;;;;;;;11.65;5.85;;;8.20;54.70;;;;;;4969470;28;20031;-64
2024/01/16 12:20:31;;;;;;;7.70;4.38;;;8.30;53.80;;;;;;4963973;28;20027;-63
2024/01/16 12:23:07;;;;;;;8.60;4.28;;;8.40;54.30;;;;;;4963397;28;20027;-62
2024/01/16 12:25:37;;;;;;;11.35;4.60;;;8.50;54.00;;;;;;4949508;28;20037;-63
2024/01/16 12:28:05;;;;;;;6.97;3.78;;;8.60;53.50;;;;;;4968262;28;20429;-62
2024/01/16 12:30:34;;;;;;;4.63;2.90;;;8.60;53.50;;;;;;4971423;28;20037;-64
2024/01/16 12:33:12;;;;;;;4.78;2.30;;;8.70;52.90;;;;;;4969871;28;20027;-62
2024/01/16 12:35:42;;;;;;;4.60;2.42;;;8.80;52.00;;;;;;4970508;28;20029;-63
2024/01/16 12:38:10;;;;;;;4.35;2.28;;;8.70;51.90;;;;;;4970343;28;20340;-64
2024/01/16 12:40:37;;;;;;;6.68;2.83;;;8.60;52.00;;;;;;4970262;28;20319;-64
2024/01/16 12:43:04;;;;;;;4.85;2.10;;;8.50;52.00;;;;;;4966777;28;20058;-63
2024/01/16 12:45:31;;;;;;;9.25;4.20;;;8.40;51.50;;;;;;4892451;28;20039;-62
2024/01/16 12:47:59;;;;;;;366.70;147.55;;;8.30;51.00;;;;;;4968826;28;20030;-64
2024/01/16 12:50:27;;;;;;;533.88;222.75;;;8.20;51.30;;;;;;4970184;28;20031;-63